Time;durP1;ratioP1;P1;durP2;ratioP2;P2;SDS_P1;SDS_P2;PMS_P1;PMS_P2;Temp;Humidity;BMP_temperature;BMP_pressure;BME280_temperature;BME280_humidity;BME280_pressure;Samples;Min_cycle;Max_cycle;Signal;HPM_P1;HPM_P2
2022/10/10 00:02:21;;;;;;;2.60;2.10;;;6.20;99.90;;;7.15;100.00;98230.00;5000766;28;20569;-84
2022/10/10 00:04:52;;;;;;;3.23;2.50;;;6.20;99.90;;;7.14;100.00;98231.00;5002989;28;20507;-85
2022/10/10 00:07:21;;;;;;;10.70;2.50;;;6.20;99.90;;;7.16;100.00;98231.63;5003598;28;20466;-84
2022/10/10 00:09:51;;;;;;;5.33;2.53;;;6.20;99.90;;;7.12;100.00;98227.72;5003589;28;20486;-84
2022/10/10 00:12:19;;;;;;;3.40;2.30;;;6.20;99.90;;;7.08;100.00;98223.81;5004135;28;20561;-85
2022/10/10 00:14:48;;;;;;;2.93;2.20;;;6.10;99.90;;;7.13;100.00;98223.34;5004226;28;20479;-84
2022/10/10 00:17:17;;;;;;;2.57;2.00;;;6.10;99.90;;;7.04;100.00;98223.34;5002165;28;20574;-84
2022/10/10 00:19:45;;;;;;;4.67;2.30;;;6.00;99.90;;;7.09;100.00;98222.84;5003537;28;20537;-84
2022/10/10 00:22:15;;;;;;;3.13;2.30;;;6.10;99.90;;;7.10;100.00;98221.88;5002224;28;20502;-84
2022/10/10 00:24:44;;;;;;;3.70;2.30;;;6.10;99.90;;;7.05;100.00;98219.75;5002410;28;20563;-84
2022/10/10 00:27:13;;;;;;;3.60;2.50;;;6.00;99.90;;;7.04;100.00;98223.34;5001998;28;20833;-85
2022/10/10 00:29:42;;;;;;;3.43;2.30;;;6.00;99.90;;;6.96;100.00;98218.13;5000769;28;20874;-84
2022/10/10 00:32:11;;;;;;;6.37;2.70;;;5.90;99.90;;;6.92;100.00;98211.63;4999316;28;20487;-84
2022/10/10 00:34:41;;;;;;;4.00;2.13;;;5.90;99.90;;;6.97;100.00;98213.75;5000366;28;21316;-84
2022/10/10 00:37:10;;;;;;;6.73;2.60;;;6.00;99.90;;;6.93;100.00;98212.44;5002809;28;20526;-85
2022/10/10 00:39:40;;;;;;;2.40;2.20;;;5.90;99.90;;;6.86;100.00;98211.44;5001110;28;20467;-84
2022/10/10 00:42:12;;;;;;;3.43;2.70;;;5.80;99.90;;;6.84;100.00;98210.78;5000755;28;20490;-85
2022/10/10 00:44:40;;;;;;;4.40;2.30;;;5.90;99.90;;;6.84;100.00;98213.38;5001145;28;20473;-84
2022/10/10 00:47:12;;;;;;;6.13;2.60;;;5.80;99.90;;;6.84;100.00;98218.56;5000127;28;20506;-84
2022/10/10 00:49:44;;;;;;;3.97;1.90;;;5.90;99.90;;;6.85;100.00;98212.41;5000237;28;20499;-85
2022/10/10 00:52:13;;;;;;;2.90;1.93;;;5.80;99.90;;;6.83;100.00;98203.97;4998079;28;20562;-85
2022/10/10 00:54:43;;;;;;;5.70;2.13;;;5.80;99.90;;;6.82;100.00;98210.13;5004547;28;20938;-85
2022/10/10 00:57:14;;;;;;;4.30;1.87;;;5.80;99.90;;;6.79;100.00;98207.84;4998692;28;20477;-84
2022/10/10 00:59:46;;;;;;;4.77;2.07;;;5.90;99.90;;;6.81;100.00;98208.50;5003574;28;20491;-85
2022/10/10 01:02:15;;;;;;;2.17;1.97;;;5.80;99.90;;;6.81;100.00;98201.53;5001075;28;20505;-85
2022/10/10 01:04:45;;;;;;;4.23;2.50;;;5.90;99.90;;;6.75;100.00;98198.75;5002772;28;20463;-84
2022/10/10 01:07:20;;;;;;;2.40;2.17;;;5.80;99.90;;;6.77;100.00;98204.63;4999485;28;20509;-85
2022/10/10 01:09:55;;;;;;;4.60;2.80;;;5.80;99.90;;;6.75;100.00;98198.75;5002884;28;20462;-84
2022/10/10 01:12:35;;;;;;;3.20;2.23;;;5.70;99.90;;;6.71;100.00;98197.44;5003569;28;20514;-85
2022/10/10 01:15:16;;;;;;;3.10;2.00;;;5.70;99.90;;;6.68;100.00;98198.56;5005573;28;20900;-84
2022/10/10 01:17:54;;;;;;;2.47;2.27;;;5.70;99.90;;;6.71;100.00;98193.06;5003515;28;20526;-84
2022/10/10 01:21:13;;;;;;;4.30;1.80;;;5.70;99.90;;;6.70;100.00;98188.81;5003503;28;20470;-84
2022/10/10 01:24:30;;;;;;;4.50;2.27;;;5.70;99.90;;;6.60;100.00;98190.75;4996348;28;20503;-85
2022/10/10 01:27:26;;;;;;;4.70;2.73;;;5.60;99.90;;;6.50;100.00;98184.88;5004981;28;20451;-84
2022/10/10 01:30:06;;;;;;;3.00;2.30;;;5.50;99.90;;;6.48;100.00;98184.22;5004252;28;20444;-85
2022/10/10 01:32:46;;;;;;;5.40;2.33;;;5.50;99.90;;;6.47;100.00;98186.00;5004969;28;20578;-85
2022/10/10 01:35:39;;;;;;;5.53;2.80;;;5.50;99.90;;;6.48;100.00;98182.44;5004426;28;20504;-84
2022/10/10 01:38:25;;;;;;;6.63;2.67;;;5.60;99.90;;;6.50;100.00;98184.88;5004496;28;20539;-84
2022/10/10 01:41:03;;;;;;;3.13;2.73;;;5.60;99.90;;;6.50;100.00;98180.50;5004930;28;20463;-84
2022/10/10 01:43:33;;;;;;;5.00;2.93;;;5.60;99.90;;;6.46;100.00;98168.78;5004342;28;21148;-85
2022/10/10 01:46:12;;;;;;;2.43;2.07;;;5.50;99.90;;;6.49;100.00;98168.47;5004943;28;20945;-85
2022/10/10 01:48:45;;;;;;;3.70;2.30;;;5.60;99.90;;;6.45;100.00;98171.56;5002769;28;20553;-84
2022/10/10 01:51:38;;;;;;;3.33;1.90;;;5.50;99.90;;;6.45;100.00;98169.78;5002637;28;20467;-84
2022/10/10 01:54:41;;;;;;;3.70;2.20;;;5.50;99.90;;;6.35;100.00;98161.28;5002660;28;20566;-84
2022/10/10 01:57:23;;;;;;;3.50;2.33;;;5.40;99.90;;;6.40;100.00;98166.00;5006573;28;20534;-84
2022/10/10 02:00:08;;;;;;;8.00;2.17;;;5.40;99.90;;;6.43;100.00;98158.72;5003764;28;20562;-85
2022/10/10 02:02:50;;;;;;;6.97;2.23;;;5.40;99.90;;;6.42;100.00;98156.31;5002738;28;20494;-83
2022/10/10 02:05:28;;;;;;;3.27;1.83;;;5.40;99.90;;;6.41;100.00;98160.69;5004895;28;21024;-84
2022/10/10 02:08:04;;;;;;;3.03;2.40;;;5.40;99.90;;;6.36;100.00;98157.72;5004679;28;20591;-84
2022/10/10 02:10:40;;;;;;;2.30;2.07;;;5.40;99.90;;;6.35;100.00;98158.69;5004199;28;20501;-84
2022/10/10 02:13:13;;;;;;;3.43;2.47;;;5.40;99.90;;;6.37;100.00;98161.97;5003481;28;20471;-84
2022/10/10 02:15:48;;;;;;;4.00;2.87;;;5.40;99.90;;;6.39;100.00;98161.78;5001818;28;20499;-84
2022/10/10 02:18:25;;;;;;;5.50;2.50;;;5.40;99.90;;;6.28;100.00;98154.31;5002830;28;20561;-84
2022/10/10 02:20:55;;;;;;;3.50;2.63;;;5.40;99.90;;;6.26;100.00;98154.44;5004295;28;20467;-84
2022/10/10 02:23:25;;;;;;;4.63;2.57;;;5.40;99.90;;;6.31;100.00;98151.41;5005037;28;20582;-84
2022/10/10 02:25:56;;;;;;;4.97;2.63;;;5.40;99.90;;;6.22;100.00;98155.72;5004974;28;20522;-84
2022/10/10 02:28:36;;;;;;;6.80;2.70;;;5.40;99.90;;;6.17;100.00;98158.00;5001908;28;20455;-84
2022/10/10 02:31:12;;;;;;;10.67;2.50;;;5.30;99.90;;;6.19;100.00;98150.84;5004231;28;20462;-84
2022/10/10 02:33:56;;;;;;;4.93;2.50;;;5.30;99.90;;;6.17;100.00;98150.22;5002431;28;20886;-84
2022/10/10 02:36:28;;;;;;;4.93;1.97;;;5.20;99.90;;;6.14;100.00;98147.94;5003626;28;20465;-84
2022/10/10 02:38:59;;;;;;;3.40;2.57;;;5.20;99.90;;;6.13;100.00;98153.25;5005894;28;20561;-84
2022/10/10 02:41:30;;;;;;;4.10;3.00;;;5.20;99.90;;;6.17;100.00;98152.81;5004102;28;20460;-85
2022/10/10 02:44:00;;;;;;;2.60;2.30;;;5.20;99.90;;;6.14;100.00;98152.31;5004092;28;20956;-84
2022/10/10 02:46:29;;;;;;;2.80;2.10;;;5.20;99.90;;;6.11;100.00;98147.44;5002516;28;20531;-84
2022/10/10 02:49:01;;;;;;;9.17;2.33;;;5.10;99.90;;;6.13;100.00;98150.66;5003354;28;20553;-84
2022/10/10 02:51:29;;;;;;;4.90;2.47;;;5.20;99.90;;;6.12;100.00;98152.44;5002938;28;20983;-84
2022/10/10 02:53:58;;;;;;;2.37;2.10;;;5.20;99.90;;;6.12;100.00;98154.22;5003207;28;20958;-84
2022/10/10 02:56:26;;;;;;;5.37;2.50;;;5.20;99.90;;;6.12;100.00;98149.03;5002233;28;20557;-84
2022/10/10 02:58:56;;;;;;;8.43;2.27;;;5.20;99.90;;;6.07;100.00;98149.53;5004386;28;20522;-84
2022/10/10 03:01:25;;;;;;;9.07;2.30;;;5.10;99.90;;;6.04;100.00;98149.81;5001934;28;20552;-83
2022/10/10 03:03:53;;;;;;;6.10;3.13;;;5.10;99.90;;;6.05;100.00;98143.66;5005345;28;20940;-83
2022/10/10 03:06:25;;;;;;;4.23;2.33;;;5.20;99.90;;;6.05;100.00;98148.84;5000772;28;20471;-84
2022/10/10 03:08:54;;;;;;;2.63;2.30;;;5.10;99.90;;;6.04;100.00;98145.44;5003361;28;20473;-85
2022/10/10 03:11:23;;;;;;;2.60;2.37;;;5.10;99.90;;;6.03;100.00;98143.84;5003654;28;20463;-83
2022/10/10 03:13:52;;;;;;;3.47;2.47;;;5.10;99.90;;;6.03;100.00;98136.03;5003473;28;20853;-82
2022/10/10 03:16:20;;;;;;;4.63;2.43;;;5.10;99.90;;;6.02;100.00;98139.59;5001170;28;20561;-83
2022/10/10 03:18:49;;;;;;;3.20;2.40;;;5.10;99.90;;;6.02;100.00;98141.38;5003962;28;20554;-85
2022/10/10 03:21:17;;;;;;;5.57;2.63;;;5.10;99.90;;;6.00;100.00;98143.34;5003359;28;20458;-83
2022/10/10 03:23:49;;;;;;;5.67;2.50;;;5.10;99.90;;;6.03;100.00;98143.00;4999681;28;20585;-83
2022/10/10 03:26:18;;;;;;;2.50;2.03;;;5.20;99.90;;;5.99;100.00;98146.88;5002302;28;20566;-82
2022/10/10 03:28:48;;;;;;;3.50;2.20;;;5.20;99.90;;;5.98;100.00;98138.28;5002531;28;20536;-83
2022/10/10 03:31:17;;;;;;;3.40;2.67;;;5.10;99.90;;;5.98;100.00;98145.25;5004003;28;20463;-83
2022/10/10 03:33:46;;;;;;;4.10;2.50;;;5.00;99.90;;;5.96;100.00;98145.41;5002439;28;20889;-82
2022/10/10 03:36:14;;;;;;;8.03;2.60;;;5.00;99.90;;;5.94;100.00;98142.16;5005291;28;20534;-83
2022/10/10 03:38:43;;;;;;;4.00;2.40;;;5.00;99.90;;;5.96;100.00;98140.22;5001551;28;20469;-83
2022/10/10 03:41:13;;;;;;;2.90;2.23;;;5.00;99.90;;;5.98;100.00;98145.25;5004304;28;20742;-83
2022/10/10 03:43:43;;;;;;;10.63;2.60;;;5.00;99.90;;;5.97;100.00;98141.06;5001324;28;20577;-89
2022/10/10 03:46:11;;;;;;;4.40;2.20;;;5.10;99.90;;;5.90;100.00;98145.22;5005463;28;21159;-83
2022/10/10 03:48:44;;;;;;;2.40;2.20;;;4.90;99.90;;;5.92;100.00;98148.47;5001349;28;20534;-82
2022/10/10 03:51:13;;;;;;;5.27;2.00;;;4.90;99.90;;;5.85;100.00;98143.06;5005477;28;20969;-83
2022/10/10 03:53:43;;;;;;;3.87;2.43;;;4.80;99.90;;;5.77;100.00;98149.97;5002390;28;20544;-82
2022/10/10 03:56:12;;;;;;;5.67;2.57;;;4.80;99.90;;;5.79;100.00;98155.84;5005527;28;20507;-82
2022/10/10 03:58:41;;;;;;;4.47;1.97;;;4.90;99.90;;;5.85;100.00;98148.25;4998447;28;20446;-83
2022/10/10 04:01:10;;;;;;;4.80;2.50;;;4.90;99.90;;;5.86;100.00;98155.09;5000030;28;20501;-83
2022/10/10 04:03:39;;;;;;;2.63;2.23;;;4.90;99.90;;;5.84;100.00;98154.41;4999581;28;20450;-83
2022/10/10 04:06:08;;;;;;;8.80;2.73;;;4.90;99.90;;;5.85;100.00;98157.81;5000835;28;20477;-82
2022/10/10 04:08:37;;;;;;;2.40;2.10;;;5.00;99.90;;;5.86;100.00;98159.47;5000498;28;20551;-83
2022/10/10 04:11:05;;;;;;;4.63;2.27;;;5.00;99.90;;;5.82;100.00;98164.13;5001646;28;20459;-83
2022/10/10 04:13:35;;;;;;;4.13;2.33;;;4.90;99.90;;;5.83;100.00;98159.75;5004804;28;20545;-83
2022/10/10 04:16:05;;;;;;;3.17;1.90;;;5.00;99.90;;;5.83;100.00;98154.56;5002952;28;20491;-82
2022/10/10 04:18:33;;;;;;;2.43;2.17;;;5.00;99.90;;;5.82;100.00;98152.94;5001778;28;20479;-82
2022/10/10 04:21:03;;;;;;;2.70;2.10;;;4.90;99.90;;;5.80;100.00;98149.66;5002478;28;20474;-82
2022/10/10 04:23:32;;;;;;;4.70;2.40;;;4.90;99.90;;;5.80;100.00;98153.06;5005415;28;20529;-82
2022/10/10 04:26:00;;;;;;;9.03;2.50;;;4.90;99.90;;;5.78;100.00;98152.44;5000463;28;21072;-83
2022/10/10 04:28:29;;;;;;;3.50;2.40;;;4.90;99.90;;;5.78;100.00;98155.03;5000536;28;20993;-86
2022/10/10 04:30:59;;;;;;;6.77;2.13;;;4.90;99.90;;;5.76;100.00;98151.75;5001430;28;20496;-84
2022/10/10 04:33:28;;;;;;;4.07;2.40;;;4.90;99.90;;;5.74;100.00;98151.09;5000837;28;20501;-83
2022/10/10 04:35:57;;;;;;;2.20;1.97;;;4.90;99.90;;;5.74;100.00;98151.09;5001147;28;21031;-83
2022/10/10 04:38:26;;;;;;;2.80;2.60;;;4.90;99.90;;;5.75;100.00;98150.16;5000907;28;21020;-83
2022/10/10 04:40:54;;;;;;;5.40;2.63;;;4.90;99.90;;;5.72;100.00;98147.03;5005375;28;20466;-89
2022/10/10 04:43:23;;;;;;;2.40;2.20;;;4.80;99.90;;;5.68;100.00;98140.53;4999553;28;20471;-83
2022/10/10 04:45:51;;;;;;;2.50;1.87;;;4.80;99.90;;;5.68;100.00;98141.34;5001490;28;20585;-83
2022/10/10 04:48:22;;;;;;;2.67;2.07;;;4.80;99.90;;;5.65;100.00;98138.25;5005700;28;20585;-82
2022/10/10 04:50:56;;;;;;;5.53;3.10;;;4.80;99.90;;;5.66;100.00;98126.91;5008224;28;20489;-83
2022/10/10 04:53:26;;;;;;;7.70;2.90;;;4.80;99.90;;;5.68;100.00;98130.97;5006179;28;20531;-82
2022/10/10 04:55:54;;;;;;;2.80;2.40;;;4.80;99.90;;;5.66;100.00;98132.09;5004283;28;20495;-83
2022/10/10 04:58:23;;;;;;;5.93;2.67;;;4.70;99.90;;;5.63;100.00;98128.00;5004788;28;20475;-83
2022/10/10 05:00:53;;;;;;;2.80;2.30;;;4.80;99.90;;;5.60;100.00;98141.28;5003517;28;20566;-85
2022/10/10 05:03:25;;;;;;;3.80;2.40;;;4.80;99.90;;;5.57;100.00;98137.22;5004841;28;20503;-84
2022/10/10 05:05:54;;;;;;;4.53;2.53;;;4.70;99.90;;;5.59;100.00;98137.88;5003250;28;20614;-83
2022/10/10 05:08:22;;;;;;;3.53;2.20;;;4.70;99.90;;;5.61;100.00;98144.72;5005948;28;20463;-84
2022/10/10 05:10:53;;;;;;;3.03;2.73;;;4.80;99.90;;;5.55;100.00;98146.16;5003472;28;20503;-83
2022/10/10 05:13:23;;;;;;;7.83;3.60;;;4.70;99.90;;;5.51;100.00;98148.22;5005741;28;20985;-84
2022/10/10 05:15:53;;;;;;;2.50;2.30;;;4.70;99.90;;;5.54;100.00;98141.91;5002513;28;21101;-84
2022/10/10 05:18:23;;;;;;;3.13;2.63;;;4.70;99.90;;;5.54;100.00;98147.91;5006525;28;20939;-84
2022/10/10 05:20:52;;;;;;;3.00;2.50;;;4.70;99.90;;;5.59;100.00;98144.84;5004312;28;21221;-82
2022/10/10 05:23:21;;;;;;;3.60;3.07;;;4.70;99.90;;;5.53;100.00;98148.88;5001498;28;20547;-82
2022/10/10 05:25:51;;;;;;;3.63;2.43;;;4.60;99.90;;;5.49;100.00;98147.53;5002372;28;20979;-82
2022/10/10 05:28:20;;;;;;;3.57;2.57;;;4.60;99.90;;;5.47;100.00;98149.50;5006000;28;20475;-83
2022/10/10 05:30:51;;;;;;;6.10;2.33;;;4.60;99.90;;;5.40;100.00;98155.44;5009145;28;20872;-83
2022/10/10 05:33:19;;;;;;;4.40;2.33;;;4.50;99.90;;;5.39;100.00;98162.38;5007146;28;21024;-83
2022/10/10 05:35:49;;;;;;;4.73;2.67;;;4.50;99.90;;;5.35;100.00;98166.25;5008157;28;20453;-82
2022/10/10 05:38:18;;;;;;;3.60;2.20;;;4.50;99.90;;;5.39;100.00;98164.97;5009889;28;20448;-83
2022/10/10 05:40:47;;;;;;;4.83;2.70;;;4.50;99.90;;;5.43;100.00;98158.53;5006421;28;20450;-83
2022/10/10 05:43:16;;;;;;;4.70;2.50;;;4.50;99.90;;;5.47;100.00;98159.88;5006635;28;20447;-83
2022/10/10 05:45:46;;;;;;;9.63;2.90;;;4.50;99.90;;;5.48;100.00;98164.06;5005846;28;20501;-83
2022/10/10 05:48:14;;;;;;;3.20;2.13;;;4.50;99.90;;;5.49;100.00;98163.09;5006177;28;20474;-83
2022/10/10 05:50:51;;;;;;;5.13;2.80;;;4.50;99.90;;;5.50;100.00;98162.16;5005778;28;20868;-83
2022/10/10 05:53:19;;;;;;;3.30;2.40;;;4.60;99.90;;;5.53;100.00;98158.44;5005578;28;20446;-83
2022/10/10 05:55:48;;;;;;;13.73;2.63;;;4.60;99.90;;;5.55;100.00;98154.72;5006189;28;20576;-83
2022/10/10 05:58:16;;;;;;;3.00;2.50;;;4.60;99.90;;;5.61;100.00;98155.09;5005480;28;21455;-83
2022/10/10 06:00:47;;;;;;;2.60;2.13;;;4.70;99.90;;;5.65;100.00;98157.22;5004656;28;20566;-83
2022/10/10 06:03:17;;;;;;;3.27;2.53;;;4.70;99.90;;;5.66;100.00;98171.00;5006930;28;20532;-83
2022/10/10 06:05:47;;;;;;;2.87;2.53;;;4.70;99.90;;;5.67;100.00;98168.25;5004350;28;20592;-83
2022/10/10 06:08:17;;;;;;;4.40;2.80;;;4.70;99.90;;;5.65;100.00;98171.97;5001214;28;20458;-83
2022/10/10 06:10:47;;;;;;;3.50;2.23;;;4.70;99.90;;;5.67;100.00;98172.63;5004125;28;20562;-83
2022/10/10 06:13:20;;;;;;;2.83;2.57;;;4.70;99.90;;;5.75;100.00;98163.13;5001188;28;20456;-83
2022/10/10 06:15:53;;;;;;;2.77;2.40;;;4.80;99.90;;;5.81;100.00;98167.69;5001304;28;20473;-83
2022/10/10 06:18:22;;;;;;;2.93;2.63;;;4.90;99.90;;;5.87;100.00;98163.69;5002074;28;21033;-83
2022/10/10 06:20:51;;;;;;;3.00;2.50;;;5.00;99.90;;;5.91;100.00;98168.41;5001633;28;20561;-83
2022/10/10 06:23:21;;;;;;;4.47;2.50;;;5.10;99.90;;;5.91;100.00;98162.41;5005616;28;20529;-83
2022/10/10 06:25:52;;;;;;;8.63;2.43;;;5.10;99.90;;;5.96;100.00;98166.19;5006333;28;20498;-83
2022/10/10 06:28:21;;;;;;;6.93;3.30;;;5.10;99.90;;;6.02;100.00;98167.34;5007095;28;20489;-83
2022/10/10 06:30:51;;;;;;;4.13;2.70;;;5.20;99.90;;;6.05;100.00;98174.81;5003836;28;20475;-83
2022/10/10 06:33:21;;;;;;;4.77;3.00;;;5.20;99.90;;;6.07;100.00;98178.06;5006305;28;20852;-83
2022/10/10 06:35:50;;;;;;;4.30;2.67;;;5.20;99.90;;;6.13;100.00;98179.22;5004276;28;20485;-83
2022/10/10 06:38:20;;;;;;;3.40;2.53;;;5.30;99.90;;;6.16;100.00;98179.72;5005617;28;20451;-84
2022/10/10 06:40:48;;;;;;;5.10;2.40;;;5.30;99.90;;;6.21;100.00;98177.50;5005793;28;20980;-83
2022/10/10 06:43:17;;;;;;;3.53;2.53;;;5.50;99.90;;;6.22;100.00;98181.69;5006342;28;20450;-83
2022/10/10 06:45:50;;;;;;;3.10;2.27;;;5.50;99.90;;;6.27;100.00;98183.84;5006395;28;20544;-83
2022/10/10 06:48:19;;;;;;;6.43;2.67;;;5.50;99.90;;;6.31;100.00;98187.75;5006354;28;20454;-83
2022/10/10 06:50:58;;;;;;;4.90;3.30;;;5.50;99.90;;;6.34;100.00;98190.84;5006450;28;20553;-84
2022/10/10 06:53:29;;;;;;;5.10;2.77;;;5.50;99.90;;;6.39;100.00;98185.97;5006719;28;20539;-83
2022/10/10 06:55:59;;;;;;;6.00;2.50;;;5.60;99.90;;;6.38;100.00;98192.16;5007663;28;20452;-83
2022/10/10 06:58:29;;;;;;;3.17;2.50;;;5.60;99.90;;;6.43;100.00;98187.28;5006338;28;20454;-83
2022/10/10 07:01:01;;;;;;;2.73;2.27;;;5.60;99.90;;;6.46;100.00;98189.56;5003275;28;20460;-83
2022/10/10 07:03:31;;;;;;;3.90;2.60;;;5.70;99.90;;;6.48;100.00;98192.84;5006143;28;20442;-83
2022/10/10 07:06:02;;;;;;;2.80;2.40;;;5.70;99.90;;;6.50;100.00;98196.09;5004018;28;20572;-83
2022/10/10 07:08:33;;;;;;;8.37;3.00;;;5.70;99.90;;;6.51;100.00;98192.53;5003265;28;20444;-83
2022/10/10 07:11:02;;;;;;;2.60;2.40;;;5.70;99.90;;;6.57;100.00;98186.69;5004961;28;20483;-83
2022/10/10 07:13:30;;;;;;;4.37;2.23;;;5.80;99.90;;;6.60;100.00;98188.16;5005334;28;21217;-83
2022/10/10 07:15:59;;;;;;;4.93;2.47;;;5.80;99.90;;;6.64;100.00;98186.06;5005209;28;20573;-83
2022/10/10 07:18:28;;;;;;;2.83;2.53;;;5.90;99.90;;;6.67;100.00;98186.53;5004860;28;20455;-83
2022/10/10 07:20:58;;;;;;;4.30;2.93;;;5.90;99.90;;;6.68;100.00;98193.38;5004919;28;20932;-84
2022/10/10 07:23:27;;;;;;;4.60;3.20;;;5.90;99.90;;;6.70;100.00;98190.63;5001254;28;20514;-83
2022/10/10 07:26:04;;;;;;;3.53;2.60;;;5.90;99.90;;;6.71;100.00;98194.84;5002162;28;20495;-84
2022/10/10 07:28:33;;;;;;;7.20;2.90;;;5.90;99.90;;;6.74;100.00;98199.72;5001861;28;20789;-83
2022/10/10 07:31:04;;;;;;;4.13;2.60;;;5.90;99.90;;;6.76;100.00;98200.38;5001733;28;20455;-84
2022/10/10 07:33:36;;;;;;;3.50;2.40;;;6.00;99.90;;;6.78;100.00;98194.03;5002620;28;20447;-83
2022/10/10 07:36:07;;;;;;;4.10;2.80;;;6.00;99.90;;;6.83;100.00;98198.78;5002379;28;20877;-82
2022/10/10 07:38:37;;;;;;;3.70;2.47;;;6.10;99.90;;;6.87;100.00;98194.88;5001522;28;20452;-83
2022/10/10 07:41:09;;;;;;;7.40;2.70;;;6.10;99.90;;;6.89;100.00;98190.34;5001546;28;20483;-83
2022/10/10 07:43:39;;;;;;;3.23;2.80;;;6.10;99.90;;;6.87;100.00;98192.28;5002246;28;21400;-83
2022/10/10 07:46:16;;;;;;;6.57;2.77;;;6.20;99.90;;;6.90;100.00;98191.97;5002749;28;20526;-84
2022/10/10 07:48:47;;;;;;;6.90;3.20;;;6.10;99.90;;;6.93;100.00;98191.66;5003198;28;20444;-83
2022/10/10 07:51:17;;;;;;;6.30;3.23;;;6.10;99.90;;;6.93;100.00;98189.88;5001486;28;20969;-84
2022/10/10 07:53:46;;;;;;;2.67;2.40;;;6.20;99.90;;;6.97;100.00;98198.16;5006728;28;20541;-83
2022/10/10 07:56:16;;;;;;;10.53;3.30;;;6.20;99.90;;;7.00;100.00;98188.25;5005092;28;20558;-83
2022/10/10 07:58:44;;;;;;;3.97;2.83;;;6.30;99.90;;;7.04;100.00;98199.13;5005083;28;21309;-83
2022/10/10 08:01:14;;;;;;;5.03;3.00;;;6.30;99.90;;;7.07;100.00;98196.22;5004079;28;20472;-83
2022/10/10 08:03:44;;;;;;;8.80;3.30;;;6.30;99.90;;;7.10;100.00;98201.09;5007016;28;20519;-83
2022/10/10 08:06:16;;;;;;;5.40;2.77;;;6.30;99.90;;;7.14;100.00;98207.59;5004457;28;20919;-83
2022/10/10 08:08:48;;;;;;;6.63;3.10;;;6.40;99.90;;;7.17;100.00;98207.28;5006008;28;20478;-83
2022/10/10 08:11:22;;;;;;;11.07;3.27;;;6.40;99.90;;;7.21;100.00;98213.78;5005490;28;20825;-84
2022/10/10 08:13:52;;;;;;;3.70;2.77;;;6.40;99.90;;;7.26;100.00;98221.06;5004443;28;20455;-83
2022/10/10 08:16:21;;;;;;;5.57;3.07;;;6.50;99.90;;;7.31;100.00;98213.63;5004439;28;21052;-83
2022/10/10 08:18:50;;;;;;;10.10;3.70;;;6.60;99.90;;;7.36;100.00;98213.94;5004087;28;20444;-83
2022/10/10 08:21:19;;;;;;;4.70;3.07;;;6.60;99.90;;;7.41;100.00;98215.09;5005588;28;21017;-84
2022/10/10 08:23:48;;;;;;;7.13;3.17;;;6.70;99.90;;;7.46;100.00;98225.00;5006757;28;20560;-83
2022/10/10 08:26:20;;;;;;;3.70;2.97;;;6.70;99.90;;;7.49;100.00;98222.06;5006152;28;20495;-83
2022/10/10 08:28:49;;;;;;;4.27;3.50;;;6.80;99.90;;;7.54;100.00;98218.00;5003737;28;21000;-83
2022/10/10 08:31:21;;;;;;;8.57;3.13;;;6.80;99.90;;;7.60;100.00;98222.53;4999199;28;20533;-84
2022/10/10 08:33:52;;;;;;;3.50;2.30;;;6.90;99.90;;;7.65;100.00;98208.22;5002335;28;20458;-83
2022/10/10 08:36:23;;;;;;;6.67;3.30;;;7.00;99.90;;;7.69;100.00;98214.72;5003953;28;20545;-84
2022/10/10 08:38:58;;;;;;;5.10;3.53;;;7.00;99.90;;;7.74;100.00;98207.25;5004532;28;20974;-83
2022/10/10 08:41:40;;;;;;;4.17;3.10;;;7.10;99.90;;;7.79;100.00;98199.75;5004740;28;20455;-84
2022/10/10 08:44:22;;;;;;;4.70;3.07;;;7.10;99.90;;;7.82;100.00;98189.81;5006781;28;20463;-83
2022/10/10 08:46:56;;;;;;;7.57;4.03;;;7.20;99.90;;;7.88;100.00;98193.56;5005468;28;20533;-83
2022/10/10 08:49:34;;;;;;;3.60;2.90;;;7.20;99.90;;;7.94;100.00;98187.69;5005737;28;20505;-82
2022/10/10 08:52:14;;;;;;;7.27;2.83;;;7.20;99.90;;;8.00;100.00;98189.63;5000183;28;20530;-83
2022/10/10 08:54:46;;;;;;;10.00;3.27;;;7.30;99.90;;;8.03;100.00;98190.09;5001192;28;20945;-83
2022/10/10 08:57:28;;;;;;;5.70;2.40;;;7.40;99.90;;;8.10;100.00;98185.84;5000490;28;20459;-83
2022/10/10 09:00:05;;;;;;;6.13;3.03;;;7.50;99.90;;;8.17;100.00;98198.19;5001040;28;20490;-84
2022/10/10 09:02:39;;;;;;;8.10;3.20;;;7.60;99.90;;;8.27;100.00;98202.22;5001307;28;20474;-83
2022/10/10 09:05:46;;;;;;;4.67;2.73;;;7.70;99.90;;;8.35;100.00;98191.81;5001019;28;20833;-83
2022/10/10 09:08:46;;;;;;;5.60;3.40;;;7.80;99.90;;;8.53;100.00;98195.00;5001101;28;21028;-84
2022/10/10 09:11:35;;;;;;;9.93;4.20;;;8.00;99.90;;;8.73;100.00;98195.38;5001638;28;20491;-83
2022/10/10 09:14:26;;;;;;;14.17;4.80;;;8.20;99.90;;;9.04;100.00;98205.78;5000229;28;20566;-83
2022/10/10 09:17:05;;;;;;;7.53;4.33;;;8.50;99.90;;;9.23;100.00;98202.72;4999991;28;21048;-83
2022/10/10 09:19:50;;;;;;;8.33;4.30;;;8.70;99.90;;;9.51;100.00;98216.03;4999227;28;20501;-83
2022/10/10 09:22:23;;;;;;;6.27;4.13;;;9.00;99.90;;;9.59;100.00;98219.38;5000160;28;20539;-83
2022/10/10 09:24:59;;;;;;;8.90;4.37;;;9.10;99.90;;;9.79;100.00;98222.28;4998944;28;20453;-83
2022/10/10 09:27:35;;;;;;;11.73;5.77;;;9.30;99.90;;;9.94;100.00;98222.31;5000012;28;20589;-83
2022/10/10 09:30:15;;;;;;;11.63;4.83;;;9.40;99.90;;;10.10;100.00;98219.53;5000861;28;20513;-83
2022/10/10 09:32:54;;;;;;;8.13;4.97;;;9.60;99.90;;;10.21;100.00;98216.50;5001173;28;20483;-83
2022/10/10 09:35:26;;;;;;;8.83;4.13;;;9.70;99.90;;;10.43;100.00;98220.84;5003778;28;20455;-83
2022/10/10 09:38:08;;;;;;;7.57;4.90;;;10.00;99.90;;;10.51;100.00;98222.53;5003949;28;20720;-83
2022/10/10 09:40:46;;;;;;;10.67;4.60;;;10.10;99.90;;;10.58;100.00;98231.28;5006742;28;20545;-83
2022/10/10 09:43:20;;;;;;;16.00;4.77;;;10.10;99.90;;;10.68;100.00;98234.44;5007136;28;20462;-83
2022/10/10 09:45:55;;;;;;;11.20;4.80;;;10.20;99.90;;;10.71;100.00;98225.41;5009024;28;20534;-84
2022/10/10 09:48:29;;;;;;;7.57;4.33;;;10.30;99.90;;;10.90;100.00;98224.78;5008367;28;20486;-83
2022/10/10 09:50:59;;;;;;;9.57;4.33;;;10.40;99.90;;;10.93;100.00;98229.69;5005868;28;20478;-83
2022/10/10 09:53:28;;;;;;;8.83;4.17;;;10.50;99.90;;;10.97;100.00;98230.91;5009517;28;20459;-84
2022/10/10 09:55:58;;;;;;;7.40;3.90;;;10.60;99.90;;;11.04;100.00;98237.03;5006375;28;20483;-83
2022/10/10 09:58:36;;;;;;;7.93;3.80;;;10.60;99.90;;;11.08;100.00;98230.44;5005707;28;20483;-82
2022/10/10 10:01:18;;;;;;;7.10;3.67;;;10.70;99.90;;;11.11;100.00;98233.50;5007150;28;20534;-83
2022/10/10 10:04:14;;;;;;;8.40;3.97;;;10.70;99.90;;;11.17;100.00;98241.63;5006454;28;20451;-84
2022/10/10 10:07:07;;;;;;;16.60;3.77;;;10.80;99.90;;;11.26;100.00;98246.53;5006774;28;20577;-84
2022/10/10 10:09:36;;;;;;;6.70;3.23;;;10.90;99.90;;;11.38;100.00;98252.91;5006864;28;20501;-82
2022/10/10 10:12:07;;;;;;;6.80;3.50;;;11.00;99.90;;;11.60;100.00;98245.84;5006604;28;20454;-83
2022/10/10 10:14:38;;;;;;;5.50;3.40;;;11.20;99.90;;;11.67;100.00;98243.28;5006585;28;20490;-83
2022/10/10 10:17:13;;;;;;;4.83;3.43;;;11.20;99.90;;;11.86;100.00;98243.50;5005636;28;20526;-84
2022/10/10 10:19:45;;;;;;;7.73;3.07;;;11.50;99.90;;;11.92;100.00;98234.03;5003953;28;20441;-84
2022/10/10 10:22:33;;;;;;;5.93;3.17;;;11.60;99.90;;;12.01;100.00;98235.50;5003152;28;20455;-84
2022/10/10 10:25:30;;;;;;;5.17;2.97;;;11.60;99.90;;;12.01;100.00;98233.69;5006748;28;20479;-84
2022/10/10 10:28:22;;;;;;;13.87;3.40;;;11.70;99.90;;;12.05;100.00;98232.31;5005972;28;20503;-83
2022/10/10 10:30:54;;;;;;;11.10;3.30;;;11.70;99.90;;;12.19;100.00;98232.41;5004679;28;20447;-83
2022/10/10 10:33:50;;;;;;;10.20;3.93;;;11.90;99.90;;;12.28;100.00;98220.78;5005967;28;20495;-83
2022/10/10 10:36:37;;;;;;;8.00;3.73;;;12.00;99.90;;;12.42;100.00;98222.47;5005277;28;20483;-83
2022/10/10 10:39:28;;;;;;;4.03;3.33;;;12.20;99.90;;;12.51;100.00;98216.84;5004076;28;20518;-84
2022/10/10 10:42:10;;;;;;;8.93;4.00;;;12.20;99.90;;;12.68;100.00;98219.13;5001128;28;20946;-84
2022/10/10 10:44:48;;;;;;;11.73;3.80;;;12.40;99.90;;;12.94;100.00;98201.69;5007044;28;20487;-84
2022/10/10 10:47:37;;;;;;;11.17;3.37;;;12.60;99.90;;;13.06;100.00;98204.53;5002434;28;20557;-83
2022/10/10 10:50:49;;;;;;;5.77;3.10;;;12.70;99.90;;;13.21;100.00;98213.09;5001834;28;20443;-83